sensor_id;sensor_type;location;lat;lon;timestamp;pressure;altitude;pressure_sealevel;temperature;humidity
46129;BME280;31860;45.186;5.790;2022-09-17T00:02:12;98721.38;;;20.95;53.10
46129;BME280;31860;45.186;5.790;2022-09-17T00:04:37;98730.25;;;20.94;53.36
46129;BME280;31860;45.186;5.790;2022-09-17T00:07:03;98732.81;;;20.95;53.42
46129;BME280;31860;45.186;5.790;2022-09-17T00:09:28;98732.00;;;20.95;52.93
46129;BME280;31860;45.186;5.790;2022-09-17T00:11:55;98738.22;;;20.94;53.02
46129;BME280;31860;45.186;5.790;2022-09-17T00:14:20;98731.19;;;20.93;52.46
46129;BME280;31860;45.186;5.790;2022-09-17T00:16:47;98741.75;;;20.94;52.51
46129;BME280;31860;45.186;5.790;2022-09-17T00:19:20;98736.50;;;20.93;52.41
46129;BME280;31860;45.186;5.790;2022-09-17T00:21:47;98743.53;;;20.94;52.78
46129;BME280;31860;45.186;5.790;2022-09-17T00:24:15;98743.41;;;20.97;52.77
46129;BME280;31860;45.186;5.790;2022-09-17T00:26:41;98734.56;;;20.96;52.61
46129;BME280;31860;45.186;5.790;2022-09-17T00:29:06;98745.03;;;20.99;52.77
46129;BME280;31860;45.186;5.790;2022-09-17T00:31:33;98746.81;;;20.99;52.97
46129;BME280;31860;45.186;5.790;2022-09-17T00:34:00;98750.41;;;20.98;53.12
46129;BME280;31860;45.186;5.790;2022-09-17T00:36:26;98752.13;;;20.99;52.93
46129;BME280;31860;45.186;5.790;2022-09-17T00:38:53;98757.41;;;21.00;52.95
46129;BME280;31860;45.186;5.790;2022-09-17T00:41:20;98747.69;;;20.99;52.76
46129;BME280;31860;45.186;5.790;2022-09-17T00:46:53;98749.53;;;20.97;52.69
46129;BME280;31860;45.186;5.790;2022-09-17T00:49:22;98751.38;;;20.97;52.31
46129;BME280;31860;45.186;5.790;2022-09-17T00:52:05;98762.03;;;20.95;51.57
46129;BME280;31860;45.186;5.790;2022-09-17T00:54:32;98769.28;;;20.92;52.15
46129;BME280;31860;45.186;5.790;2022-09-17T00:56:58;98766.81;;;20.89;52.38
46129;BME280;31860;45.186;5.790;2022-09-17T00:59:24;98766.81;;;20.89;52.24
46129;BME280;31860;45.186;5.790;2022-09-17T01:01:50;98756.31;;;20.86;51.77
46129;BME280;31860;45.186;5.790;2022-09-17T01:04:18;98767.09;;;20.83;51.85
46129;BME280;31860;45.186;5.790;2022-09-17T01:18:14;98799.53;;;20.70;52.45
46129;BME280;31860;45.186;5.790;2022-09-17T01:32:25;98814.31;;;20.57;49.37
46129;BME280;31860;45.186;5.790;2022-09-17T01:35:04;98809.06;;;20.56;48.49
46129;BME280;31860;45.186;5.790;2022-09-17T01:40:25;98812.88;;;20.50;48.98
46129;BME280;31860;45.186;5.790;2022-09-17T01:43:08;98804.13;;;20.48;48.96
46129;BME280;31860;45.186;5.790;2022-09-17T01:45:41;98803.25;;;20.48;49.47
46129;BME280;31860;45.186;5.790;2022-09-17T01:48:20;98801.47;;;20.48;48.28
46129;BME280;31860;45.186;5.790;2022-09-17T01:50:56;98813.03;;;20.47;48.42
46129;BME280;31860;45.186;5.790;2022-09-17T01:53:27;98803.31;;;20.46;49.27
46129;BME280;31860;45.186;5.790;2022-09-17T01:55:54;98810.41;;;20.46;49.44
46129;BME280;31860;45.186;5.790;2022-09-17T01:58:28;98821.09;;;20.44;49.85
46129;BME280;31860;45.186;5.790;2022-09-17T02:00:59;98827.44;;;20.42;50.11
46129;BME280;31860;45.186;5.790;2022-09-17T02:03:34;98832.88;;;20.39;50.30
46129;BME280;31860;45.186;5.790;2022-09-17T02:06:09;98836.47;;;20.38;50.59
46129;BME280;31860;45.186;5.790;2022-09-17T02:08:51;98844.53;;;20.35;50.52
46129;BME280;31860;45.186;5.790;2022-09-17T02:11:18;98831.53;;;20.29;50.65
46129;BME280;31860;45.186;5.790;2022-09-17T02:13:59;98831.63;;;20.27;49.72
46129;BME280;31860;45.186;5.790;2022-09-17T02:16:29;98825.59;;;20.24;49.13
46129;BME280;31860;45.186;5.790;2022-09-17T02:19:05;98821.28;;;20.21;47.72
46129;BME280;31860;45.186;5.790;2022-09-17T02:27:15;98827.03;;;20.11;47.09
46129;BME280;31860;45.186;5.790;2022-09-17T02:29:43;98828.97;;;20.07;46.72
46129;BME280;31860;45.186;5.790;2022-09-17T02:32:10;98831.78;;;20.04;47.39
46129;BME280;31860;45.186;5.790;2022-09-17T02:34:37;98834.53;;;20.01;47.62
46129;BME280;31860;45.186;5.790;2022-09-17T02:37:03;98836.38;;;19.99;47.33
46129;BME280;31860;45.186;5.790;2022-09-17T02:39:29;98851.44;;;19.99;47.36
46129;BME280;31860;45.186;5.790;2022-09-17T02:45:05;98860.41;;;19.96;47.08
46129;BME280;31860;45.186;5.790;2022-09-17T02:59:25;98858.34;;;19.82;45.66
46129;BME280;31860;45.186;5.790;2022-09-17T03:02:01;98869.91;;;19.80;46.17
46129;BME280;31860;45.186;5.790;2022-09-17T03:04:31;98873.63;;;19.76;46.67
46129;BME280;31860;45.186;5.790;2022-09-17T03:06:57;98877.34;;;19.72;46.79
46129;BME280;31860;45.186;5.790;2022-09-17T03:09:24;98884.44;;;19.71;47.06
46129;BME280;31860;45.186;5.790;2022-09-17T03:11:49;98872.06;;;19.72;46.93
46129;BME280;31860;45.186;5.790;2022-09-17T03:14:15;98872.16;;;19.69;47.03
46129;BME280;31860;45.186;5.790;2022-09-17T03:16:41;98874.88;;;19.67;47.14
46129;BME280;31860;45.186;5.790;2022-09-17T03:19:06;98882.91;;;19.66;47.49
46129;BME280;31860;45.186;5.790;2022-09-17T03:21:32;98877.72;;;19.63;47.71
46129;BME280;31860;45.186;5.790;2022-09-17T03:23:57;98876.00;;;19.62;47.49
46129;BME280;31860;45.186;5.790;2022-09-17T03:26:25;98874.31;;;19.59;47.89
46129;BME280;31860;45.186;5.790;2022-09-17T03:28:50;98874.47;;;19.56;47.99
46129;BME280;31860;45.186;5.790;2022-09-17T03:31:16;98868.38;;;19.54;47.94
46129;BME280;31860;45.186;5.790;2022-09-17T03:33:41;98866.63;;;19.53;47.98
46129;BME280;31860;45.186;5.790;2022-09-17T03:36:07;98865.06;;;19.49;48.04
46129;BME280;31860;45.186;5.790;2022-09-17T03:38:32;98874.88;;;19.46;47.94
46129;BME280;31860;45.186;5.790;2022-09-17T03:41:03;98881.06;;;19.46;47.62
46129;BME280;31860;45.186;5.790;2022-09-17T03:43:29;98867.00;;;19.44;47.76
46129;BME280;31860;45.186;5.790;2022-09-17T03:45:55;98869.00;;;19.39;47.89
46129;BME280;31860;45.186;5.790;2022-09-17T03:48:21;98874.38;;;19.38;48.12
46129;BME280;31860;45.186;5.790;2022-09-17T03:50:47;98883.13;;;19.40;48.26
46129;BME280;31860;45.186;5.790;2022-09-17T03:53:12;98889.25;;;19.40;48.00
46129;BME280;31860;45.186;5.790;2022-09-17T03:55:38;98896.38;;;19.40;48.17
46129;BME280;31860;45.186;5.790;2022-09-17T03:58:04;98891.91;;;19.40;47.88
46129;BME280;31860;45.186;5.790;2022-09-17T04:00:29;98888.50;;;19.37;47.88
46129;BME280;31860;45.186;5.790;2022-09-17T04:02:55;98887.84;;;19.32;47.94
46129;BME280;31860;45.186;5.790;2022-09-17T04:05:21;98891.44;;;19.29;47.88
46129;BME280;31860;45.186;5.790;2022-09-17T04:07:46;98889.72;;;19.28;47.81
46129;BME280;31860;45.186;5.790;2022-09-17T04:10:11;98893.34;;;19.26;47.97
46129;BME280;31860;45.186;5.790;2022-09-17T04:12:37;98890.84;;;19.23;47.83
46129;BME280;31860;45.186;5.790;2022-09-17T04:15:03;98895.31;;;19.21;47.74
46129;BME280;31860;45.186;5.790;2022-09-17T04:17:29;98898.06;;;19.18;47.81
46129;BME280;31860;45.186;5.790;2022-09-17T04:19:54;98899.91;;;19.16;47.98
46129;BME280;31860;45.186;5.790;2022-09-17T04:22:20;98891.31;;;19.11;48.32
46129;BME280;31860;45.186;5.790;2022-09-17T04:24:45;98906.47;;;19.07;48.27
46129;BME280;31860;45.186;5.790;2022-09-17T04:27:10;98901.31;;;19.03;48.40
46129;BME280;31860;45.186;5.790;2022-09-17T04:29:36;98901.47;;;19.00;48.35
46129;BME280;31860;45.186;5.790;2022-09-17T04:32:01;98904.22;;;18.97;48.36
46129;BME280;31860;45.186;5.790;2022-09-17T04:34:27;98920.16;;;18.95;48.36
46129;BME280;31860;45.186;5.790;2022-09-17T04:36:53;98922.13;;;18.90;48.50
46129;BME280;31860;45.186;5.790;2022-09-17T04:39:18;98923.91;;;18.89;48.61
46129;BME280;31860;45.186;5.790;2022-09-17T04:41:44;98930.19;;;18.87;48.60
46129;BME280;31860;45.186;5.790;2022-09-17T04:44:09;98938.22;;;18.84;49.01
46129;BME280;31860;45.186;5.790;2022-09-17T04:46:35;98935.72;;;18.81;48.70
46129;BME280;31860;45.186;5.790;2022-09-17T04:49:00;98934.84;;;18.80;48.76
46129;BME280;31860;45.186;5.790;2022-09-17T04:51:26;98932.31;;;18.77;48.66
46129;BME280;31860;45.186;5.790;2022-09-17T04:53:51;98936.59;;;18.80;48.74
46129;BME280;31860;45.186;5.790;2022-09-17T04:56:17;98936.66;;;18.78;48.63
46129;BME280;31860;45.186;5.790;2022-09-17T04:58:42;98938.44;;;18.78;48.43
46129;BME280;31860;45.186;5.790;2022-09-17T05:01:08;98944.75;;;18.75;48.69
46129;BME280;31860;45.186;5.790;2022-09-17T05:03:34;98948.41;;;18.71;48.71
46129;BME280;31860;45.186;5.790;2022-09-17T05:05:59;98953.84;;;18.68;48.92
46129;BME280;31860;45.186;5.790;2022-09-17T05:08:25;98957.38;;;18.67;48.89
46129;BME280;31860;45.186;5.790;2022-09-17T05:10:53;98961.88;;;18.65;48.67
46129;BME280;31860;45.186;5.790;2022-09-17T05:13:18;98960.97;;;18.66;48.68
46129;BME280;31860;45.186;5.790;2022-09-17T05:15:44;98967.97;;;18.67;48.53
46129;BME280;31860;45.186;5.790;2022-09-17T05:18:09;98961.72;;;18.70;48.68
46129;BME280;31860;45.186;5.790;2022-09-17T05:20:35;98967.81;;;18.72;48.45
46129;BME280;31860;45.186;5.790;2022-09-17T05:23:00;98954.50;;;18.73;48.39
46129;BME280;31860;45.186;5.790;2022-09-17T05:25:26;98965.91;;;18.75;48.50
46129;BME280;31860;45.186;5.790;2022-09-17T05:27:54;98968.50;;;18.77;48.19
46129;BME280;31860;45.186;5.790;2022-09-17T05:30:21;98965.72;;;18.80;48.12
46129;BME280;31860;45.186;5.790;2022-09-17T05:32:46;98970.00;;;18.84;48.00
46129;BME280;31860;45.186;5.790;2022-09-17T05:35:13;98970.00;;;18.84;47.76
46129;BME280;31860;45.186;5.790;2022-09-17T05:37:38;98971.66;;;18.86;47.67
46129;BME280;31860;45.186;5.790;2022-09-17T05:40:05;98969.03;;;18.86;47.62
46129;BME280;31860;45.186;5.790;2022-09-17T05:42:32;98974.25;;;18.88;47.45
46129;BME280;31860;45.186;5.790;2022-09-17T05:44:58;98980.34;;;18.90;47.73
46129;BME280;31860;45.186;5.790;2022-09-17T05:47:23;98982.94;;;18.91;47.46
46129;BME280;31860;45.186;5.790;2022-09-17T05:49:48;98988.16;;;18.95;47.60
46129;BME280;31860;45.186;5.790;2022-09-17T05:52:14;98984.56;;;18.96;47.48
46129;BME280;31860;45.186;5.790;2022-09-17T05:54:40;98988.88;;;18.98;47.47
46129;BME280;31860;45.186;5.790;2022-09-17T05:57:06;98998.53;;;18.99;47.57
46129;BME280;31860;45.186;5.790;2022-09-17T05:59:31;98987.78;;;19.04;47.51
46129;BME280;31860;45.186;5.790;2022-09-17T06:01:57;98988.69;;;19.03;47.58
46129;BME280;31860;45.186;5.790;2022-09-17T06:04:26;98998.31;;;19.05;47.45
46129;BME280;31860;45.186;5.790;2022-09-17T06:06:51;98994.00;;;19.03;47.64
46129;BME280;31860;45.186;5.790;2022-09-17T06:09:16;98996.53;;;19.06;47.69
46129;BME280;31860;45.186;5.790;2022-09-17T06:11:42;99000.91;;;19.07;47.65
46129;BME280;31860;45.186;5.790;2022-09-17T06:14:08;99006.13;;;19.08;47.44
46129;BME280;31860;45.186;5.790;2022-09-17T06:16:34;98997.44;;;19.05;47.58
46129;BME280;31860;45.186;5.790;2022-09-17T06:18:59;99008.03;;;19.05;47.49
46129;BME280;31860;45.186;5.790;2022-09-17T06:21:25;99006.19;;;19.07;47.47
46129;BME280;31860;45.186;5.790;2022-09-17T06:23:50;99017.59;;;19.09;47.67
46129;BME280;31860;45.186;5.790;2022-09-17T06:26:16;99007.00;;;19.09;47.49
46129;BME280;31860;45.186;5.790;2022-09-17T06:28:42;99009.59;;;19.10;47.64
46129;BME280;31860;45.186;5.790;2022-09-17T06:31:09;99007.81;;;19.11;47.46
46129;BME280;31860;45.186;5.790;2022-09-17T06:33:35;99014.84;;;19.12;47.35
46129;BME280;31860;45.186;5.790;2022-09-17T06:36:07;99011.13;;;19.17;46.55
46129;BME280;31860;45.186;5.790;2022-09-17T06:38:34;99019.81;;;19.21;46.84
46129;BME280;31860;45.186;5.790;2022-09-17T06:41:00;99020.50;;;19.26;46.67
46129;BME280;31860;45.186;5.790;2022-09-17T06:43:26;99021.16;;;19.32;46.41
46129;BME280;31860;45.186;5.790;2022-09-17T06:45:59;99010.38;;;19.37;46.32
46129;BME280;31860;45.186;5.790;2022-09-17T06:48:28;99014.53;;;19.44;46.17
46129;BME280;31860;45.186;5.790;2022-09-17T06:51:00;99017.72;;;19.52;45.75
46129;BME280;31860;45.186;5.790;2022-09-17T06:53:26;99004.19;;;19.59;46.08
46129;BME280;31860;45.186;5.790;2022-09-17T06:55:56;99009.19;;;19.67;45.65
46129;BME280;31860;45.186;5.790;2022-09-17T06:58:22;99017.63;;;19.76;45.76
46129;BME280;31860;45.186;5.790;2022-09-17T07:00:47;99004.94;;;19.84;45.08
46129;BME280;31860;45.186;5.790;2022-09-17T07:03:13;99012.53;;;19.94;44.97
46129;BME280;31860;45.186;5.790;2022-09-17T07:05:38;99013.94;;;20.02;44.64
46129;BME280;31860;45.186;5.790;2022-09-17T07:08:04;99008.34;;;20.10;44.72
46129;BME280;31860;45.186;5.790;2022-09-17T07:10:30;99000.94;;;20.18;44.32
46129;BME280;31860;45.186;5.790;2022-09-17T07:12:56;99001.56;;;20.24;44.34
46129;BME280;31860;45.186;5.790;2022-09-17T07:15:21;99002.13;;;20.31;44.00
46129;BME280;31860;45.186;5.790;2022-09-17T07:17:47;99004.44;;;20.40;43.98
46129;BME280;31860;45.186;5.790;2022-09-17T07:20:13;99005.88;;;20.47;43.86
46129;BME280;31860;45.186;5.790;2022-09-17T07:22:38;99003.78;;;20.55;43.49
46129;BME280;31860;45.186;5.790;2022-09-17T07:25:04;99013.19;;;20.62;43.53
46129;BME280;31860;45.186;5.790;2022-09-17T07:27:31;99020.81;;;20.69;43.43
46129;BME280;31860;45.186;5.790;2022-09-17T07:29:57;99009.78;;;20.78;43.02
46129;BME280;31860;45.186;5.790;2022-09-17T07:32:28;99016.63;;;20.84;42.53
46129;BME280;31860;45.186;5.790;2022-09-17T07:34:54;99010.16;;;20.90;42.75
46129;BME280;31860;45.186;5.790;2022-09-17T07:37:20;99010.69;;;20.98;42.43
46129;BME280;31860;45.186;5.790;2022-09-17T07:39:46;99001.69;;;21.02;42.04
46129;BME280;31860;45.186;5.790;2022-09-17T07:42:12;99006.75;;;21.08;41.81
46129;BME280;31860;45.186;5.790;2022-09-17T07:44:37;99005.72;;;21.10;41.47
46129;BME280;31860;45.186;5.790;2022-09-17T07:47:03;99006.41;;;21.15;41.30
46129;BME280;31860;45.186;5.790;2022-09-17T07:49:29;99000.84;;;21.20;41.56
46129;BME280;31860;45.186;5.790;2022-09-17T07:51:55;98999.66;;;21.27;41.23
46129;BME280;31860;45.186;5.790;2022-09-17T07:54:21;99002.88;;;21.33;41.51
46129;BME280;31860;45.186;5.790;2022-09-17T07:56:47;99008.84;;;21.38;41.33
46129;BME280;31860;45.186;5.790;2022-09-17T07:59:12;98999.66;;;21.45;40.96
46129;BME280;31860;45.186;5.790;2022-09-17T08:01:38;98996.75;;;21.50;40.81
46129;BME280;31860;45.186;5.790;2022-09-17T08:04:04;98992.91;;;21.57;40.76
46129;BME280;31860;45.186;5.790;2022-09-17T08:06:30;99003.22;;;21.63;40.58
46129;BME280;31860;45.186;5.790;2022-09-17T08:08:57;98996.75;;;21.68;40.36
46129;BME280;31860;45.186;5.790;2022-09-17T08:11:25;98990.28;;;21.74;39.85
46129;BME280;31860;45.186;5.790;2022-09-17T08:13:52;98999.00;;;21.78;39.47
46129;BME280;31860;45.186;5.790;2022-09-17T08:16:19;99004.19;;;21.81;39.31
46129;BME280;31860;45.186;5.790;2022-09-17T08:18:46;99007.56;;;21.84;38.84
46129;BME280;31860;45.186;5.790;2022-09-17T08:21:15;99013.66;;;21.86;38.87
46129;BME280;31860;45.186;5.790;2022-09-17T08:23:43;99018.06;;;21.87;39.00
46129;BME280;31860;45.186;5.790;2022-09-17T08:26:20;99020.56;;;21.90;37.57
46129;BME280;31860;45.186;5.790;2022-09-17T08:28:51;99022.22;;;21.93;38.47
46129;BME280;31860;45.186;5.790;2022-09-17T08:31:18;99028.09;;;21.99;38.71
46129;BME280;31860;45.186;5.790;2022-09-17T08:33:45;99020.91;;;22.01;38.67
46129;BME280;31860;45.186;5.790;2022-09-17T08:36:13;99026.84;;;22.06;38.54
46129;BME280;31860;45.186;5.790;2022-09-17T08:38:39;99026.47;;;22.14;38.52
46129;BME280;31860;45.186;5.790;2022-09-17T08:43:40;99026.81;;;22.25;37.38
46129;BME280;31860;45.186;5.790;2022-09-17T08:46:10;99039.81;;;22.31;37.34
46129;BME280;31860;45.186;5.790;2022-09-17T08:48:55;99035.19;;;22.34;36.36
46129;BME280;31860;45.186;5.790;2022-09-17T08:59:42;99033.31;;;22.53;36.22
46129;BME280;31860;45.186;5.790;2022-09-17T09:05:00;99023.19;;;22.62;35.29
46129;BME280;31860;45.186;5.790;2022-09-17T09:07:30;99018.34;;;22.70;36.59
46129;BME280;31860;45.186;5.790;2022-09-17T09:10:07;99017.06;;;22.77;37.00
46129;BME280;31860;45.186;5.790;2022-09-17T09:12:36;99015.00;;;22.82;36.80
46129;BME280;31860;45.186;5.790;2022-09-17T09:17:48;99021.50;;;22.93;36.69
46129;BME280;31860;45.186;5.790;2022-09-17T09:20:33;99011.63;;;22.95;35.27
46129;BME280;31860;45.186;5.790;2022-09-17T09:23:14;99018.34;;;23.02;35.81
46129;BME280;31860;45.186;5.790;2022-09-17T09:25:51;99013.66;;;23.07;35.66
46129;BME280;31860;45.186;5.790;2022-09-17T09:28:34;99008.94;;;23.12;35.66
46129;BME280;31860;45.186;5.790;2022-09-17T09:33:54;99009.72;;;23.14;35.94
46129;BME280;31860;45.186;5.790;2022-09-17T09:36:21;99007.81;;;23.16;35.86
46129;BME280;31860;45.186;5.790;2022-09-17T09:39:03;99004.91;;;23.21;34.74
46129;BME280;31860;45.186;5.790;2022-09-17T09:41:43;98999.22;;;23.27;34.67
46129;BME280;31860;45.186;5.790;2022-09-17T09:44:14;98993.69;;;23.31;35.72
46129;BME280;31860;45.186;5.790;2022-09-17T09:54:57;98994.56;;;23.47;34.73
46129;BME280;31860;45.186;5.790;2022-09-17T09:57:54;98991.41;;;23.57;33.65
46129;BME280;31860;45.186;5.790;2022-09-17T10:00:37;98997.34;;;23.62;33.25
46129;BME280;31860;45.186;5.790;2022-09-17T10:03:19;98992.53;;;23.68;34.16
46129;BME280;31860;45.186;5.790;2022-09-17T10:08:26;98989.00;;;23.83;34.79
46129;BME280;31860;45.186;5.790;2022-09-17T10:11:00;98993.03;;;23.90;34.28
46129;BME280;31860;45.186;5.790;2022-09-17T10:13:30;98997.06;;;23.97;34.70
46129;BME280;31860;45.186;5.790;2022-09-17T10:16:22;98990.28;;;24.07;33.41
46129;BME280;31860;45.186;5.790;2022-09-17T10:19:12;98996.97;;;24.14;32.19
46129;BME280;31860;45.186;5.790;2022-09-17T10:21:42;98994.72;;;24.22;34.16
46129;BME280;31860;45.186;5.790;2022-09-17T10:26:45;99002.97;;;24.33;33.70
46129;BME280;31860;45.186;5.790;2022-09-17T10:29:13;98993.63;;;24.40;33.33
46129;BME280;31860;45.186;5.790;2022-09-17T10:31:51;98986.19;;;24.45;31.68
46129;BME280;31860;45.186;5.790;2022-09-17T10:34:28;99000.31;;;24.48;31.82
46129;BME280;31860;45.186;5.790;2022-09-17T10:36:55;99001.88;;;24.52;33.37
46129;BME280;31860;45.186;5.790;2022-09-17T10:42:11;99002.47;;;24.57;31.98
46129;BME280;31860;45.186;5.790;2022-09-17T10:44:38;99004.19;;;24.58;32.42
46129;BME280;31860;45.186;5.790;2022-09-17T10:47:21;98995.41;;;24.56;31.72
46129;BME280;31860;45.186;5.790;2022-09-17T10:49:54;99001.31;;;24.61;31.57
46129;BME280;31860;45.186;5.790;2022-09-17T10:52:31;99003.53;;;24.68;30.86
46129;BME280;31860;45.186;5.790;2022-09-17T11:00:19;98998.53;;;24.78;32.05
46129;BME280;31860;45.186;5.790;2022-09-17T11:19:37;99013.47;;;24.96;30.62
46129;BME280;31860;45.186;5.790;2022-09-17T11:24:46;99008.28;;;24.93;29.81
46129;BME280;31860;45.186;5.790;2022-09-17T11:30:19;99010.13;;;24.92;30.88
46129;BME280;31860;45.186;5.790;2022-09-17T11:32:52;99001.34;;;24.90;31.58
46129;BME280;31860;45.186;5.790;2022-09-17T11:35:30;99013.63;;;24.93;30.31
46129;BME280;31860;45.186;5.790;2022-09-17T11:38:02;99013.63;;;24.93;30.40
46129;BME280;31860;45.186;5.790;2022-09-17T11:40:37;99008.97;;;24.96;30.33
46129;BME280;31860;45.186;5.790;2022-09-17T11:43:19;99015.84;;;25.00;30.30
46129;BME280;31860;45.186;5.790;2022-09-17T11:45:59;99010.22;;;25.05;30.09
46129;BME280;31860;45.186;5.790;2022-09-17T11:48:59;99001.06;;;25.09;29.56
46129;BME280;31860;45.186;5.790;2022-09-17T11:51:36;99010.97;;;25.07;29.56
46129;BME280;31860;45.186;5.790;2022-09-17T11:54:22;99010.88;;;25.08;31.10
46129;BME280;31860;45.186;5.790;2022-09-17T11:57:09;99002.88;;;25.08;30.53
46129;BME280;31860;45.186;5.790;2022-09-17T11:59:44;99009.84;;;25.11;31.22
46129;BME280;31860;45.186;5.790;2022-09-17T12:02:20;98995.41;;;25.13;30.20
46129;BME280;31860;45.186;5.790;2022-09-17T12:10:34;98992.84;;;25.12;30.23
46129;BME280;31860;45.186;5.790;2022-09-17T12:15:37;98992.72;;;25.13;30.66
46129;BME280;31860;45.186;5.790;2022-09-17T12:20:36;98996.59;;;25.09;31.16
46129;BME280;31860;45.186;5.790;2022-09-17T12:23:09;98992.16;;;25.08;30.24
46129;BME280;31860;45.186;5.790;2022-09-17T12:25:48;98994.84;;;25.08;30.29
46129;BME280;31860;45.186;5.790;2022-09-17T12:28:39;98991.31;;;25.08;29.66
46129;BME280;31860;45.186;5.790;2022-09-17T12:31:35;98993.50;;;25.01;29.81
46129;BME280;31860;45.186;5.790;2022-09-17T12:43:17;98989.09;;;24.86;30.47
46129;BME280;31860;45.186;5.790;2022-09-17T12:54:19;98992.94;;;24.67;30.35
46129;BME280;31860;45.186;5.790;2022-09-17T12:59:48;98985.84;;;24.52;30.32
46129;BME280;31860;45.186;5.790;2022-09-17T13:02:24;98986.97;;;24.48;30.42
46129;BME280;31860;45.186;5.790;2022-09-17T13:10:02;98989.34;;;24.38;31.25
46129;BME280;31860;45.186;5.790;2022-09-17T13:15:56;98982.19;;;24.38;31.45
46129;BME280;31860;45.186;5.790;2022-09-17T13:18:41;98990.19;;;24.38;31.24
46129;BME280;31860;45.186;5.790;2022-09-17T13:21:16;98978.84;;;24.35;31.37
46129;BME280;31860;45.186;5.790;2022-09-17T13:23:47;98979.88;;;24.32;31.91
46129;BME280;31860;45.186;5.790;2022-09-17T13:26:17;98986.09;;;24.33;32.19
46129;BME280;31860;45.186;5.790;2022-09-17T13:28:48;98984.38;;;24.32;32.04
46129;BME280;31860;45.186;5.790;2022-09-17T13:31:21;98984.38;;;24.32;31.58
46129;BME280;31860;45.186;5.790;2022-09-17T13:36:46;98989.09;;;24.27;32.07
46129;BME280;31860;45.186;5.790;2022-09-17T13:39:34;98987.56;;;24.23;31.17
46129;BME280;31860;45.186;5.790;2022-09-17T13:42:30;98992.16;;;24.21;30.91
46129;BME280;31860;45.186;5.790;2022-09-17T13:45:09;98994.06;;;24.19;31.27
46129;BME280;31860;45.186;5.790;2022-09-17T13:47:39;98994.22;;;24.16;31.95
46129;BME280;31860;45.186;5.790;2022-09-17T13:52:54;99000.69;;;24.12;32.01
46129;BME280;31860;45.186;5.790;2022-09-17T13:55:36;98989.16;;;24.11;32.28
46129;BME280;31860;45.186;5.790;2022-09-17T13:58:05;98992.88;;;24.09;32.02
46129;BME280;31860;45.186;5.790;2022-09-17T14:01:02;98993.06;;;24.06;31.38
46129;BME280;31860;45.186;5.790;2022-09-17T14:13:48;98993.19;;;23.87;32.40
46129;BME280;31860;45.186;5.790;2022-09-17T14:24:25;98984.94;;;23.76;32.67
46129;BME280;31860;45.186;5.790;2022-09-17T14:30:00;99000.34;;;23.71;32.64
46129;BME280;31860;45.186;5.790;2022-09-17T14:37:47;98985.09;;;23.58;32.67
46129;BME280;31860;45.186;5.790;2022-09-17T14:40:17;98990.44;;;23.58;32.76
46129;BME280;31860;45.186;5.790;2022-09-17T14:42:44;98994.06;;;23.57;32.68
46129;BME280;31860;45.186;5.790;2022-09-17T14:45:18;98995.19;;;23.52;32.21
46129;BME280;31860;45.186;5.790;2022-09-17T14:47:45;98992.53;;;23.52;32.78
46129;BME280;31860;45.186;5.790;2022-09-17T14:50:24;98997.16;;;23.49;32.02
46129;BME280;31860;45.186;5.790;2022-09-17T14:52:52;98996.38;;;23.47;33.02
46129;BME280;31860;45.186;5.790;2022-09-17T14:55:23;98998.09;;;23.48;33.24
46129;BME280;31860;45.186;5.790;2022-09-17T14:57:53;98999.84;;;23.49;33.38
46129;BME280;31860;45.186;5.790;2022-09-17T15:02:52;99008.75;;;23.48;33.21
46129;BME280;31860;45.186;5.790;2022-09-17T15:05:26;99021.16;;;23.49;33.19
46129;BME280;31860;45.186;5.790;2022-09-17T15:10:38;99003.69;;;23.43;33.05
46129;BME280;31860;45.186;5.790;2022-09-17T15:13:10;98995.94;;;23.39;32.50
46129;BME280;31860;45.186;5.790;2022-09-17T15:15:37;99012.91;;;23.38;33.56
46129;BME280;31860;45.186;5.790;2022-09-17T15:18:04;99015.63;;;23.36;33.07
46129;BME280;31860;45.186;5.790;2022-09-17T15:20:29;99019.16;;;23.37;33.26
46129;BME280;31860;45.186;5.790;2022-09-17T15:23:13;99007.63;;;23.36;33.40
46129;BME280;31860;45.186;5.790;2022-09-17T15:25:41;99011.25;;;23.35;33.55
46129;BME280;31860;45.186;5.790;2022-09-17T15:28:27;99015.72;;;23.35;33.01
46129;BME280;31860;45.186;5.790;2022-09-17T15:30:54;99014.84;;;23.34;32.84
46129;BME280;31860;45.186;5.790;2022-09-17T15:33:20;99012.34;;;23.31;33.93
46129;BME280;31860;45.186;5.790;2022-09-17T15:38:26;99020.50;;;23.28;32.88
46129;BME280;31860;45.186;5.790;2022-09-17T15:40:52;99026.84;;;23.26;32.79
46129;BME280;31860;45.186;5.790;2022-09-17T15:43:29;99019.78;;;23.25;32.63
46129;BME280;31860;45.186;5.790;2022-09-17T15:45:56;99020.75;;;23.24;33.33
46129;BME280;31860;45.186;5.790;2022-09-17T15:48:37;99029.59;;;23.24;32.96
46129;BME280;31860;45.186;5.790;2022-09-17T15:51:22;99032.19;;;23.26;33.43
46129;BME280;31860;45.186;5.790;2022-09-17T15:53:52;99032.34;;;23.23;33.41
46129;BME280;31860;45.186;5.790;2022-09-17T15:56:22;99032.41;;;23.21;33.60
46129;BME280;31860;45.186;5.790;2022-09-17T15:58:59;99036.97;;;23.19;32.92
46129;BME280;31860;45.186;5.790;2022-09-17T16:08:54;99046.41;;;23.09;33.62
46129;BME280;31860;45.186;5.790;2022-09-17T16:11:24;99051.06;;;23.06;33.26
46129;BME280;31860;45.186;5.790;2022-09-17T16:13:52;99051.19;;;23.03;33.63
46129;BME280;31860;45.186;5.790;2022-09-17T16:18:55;99055.91;;;22.98;33.59
46129;BME280;31860;45.186;5.790;2022-09-17T16:21:20;99060.38;;;22.97;34.13
46129;BME280;31860;45.186;5.790;2022-09-17T16:23:46;99057.88;;;22.94;33.73
46129;BME280;31860;45.186;5.790;2022-09-17T16:26:17;99066.97;;;22.90;33.23
46129;BME280;31860;45.186;5.790;2022-09-17T16:28:48;99064.41;;;22.89;33.44
46129;BME280;31860;45.186;5.790;2022-09-17T16:31:14;99062.66;;;22.88;33.54
46129;BME280;31860;45.186;5.790;2022-09-17T16:33:40;99068.94;;;22.87;33.93
46129;BME280;31860;45.186;5.790;2022-09-17T16:36:06;99064.63;;;22.84;34.15
46129;BME280;31860;45.186;5.790;2022-09-17T16:38:32;99069.25;;;22.81;33.82